Tiempo atmosférico en la estación meteorológica de Izaña, Santa Cruz de Tenerife (2371 m.)



Fecha
DESCASC
Temp. máxima en grados centígrados (hora)
DESCASC
Temp. mínima en grados centígrados (hora)
DESCASC
Temp. media en grados centígrados
DESCASC
Racha de viento máxima en m/sg (hora)
DESCASC
Velocidad máxima media en intervalos de 10 minutos(hora)
DESCASC
Precipitaciones diarias en mm
DESCASC
Precipitaciones de 00:00 a 06:00 en mm
DESCASC
Precipitaciones de 06:00 a 12:00 en mm
DESCASC
Precipitaciones de 12:00 a 18:00 en mm
DESCASC
Precipitaciones de 18:00 a 24:00 en mm
DESCASC
25-04-2019 12 (14:30) 4.6 (03:10) 8.3 8.61 (13:40) 7.22 (06:50) 0 0 0 0 0
24-04-2019 12.1 (16:20) 2.2 (02:30) 7.2 17.5 (01:50) 14.17 (01:50) 0 0 0 0 0
23-04-2019 9 (14:50) 2.3 (23:00) 5.6 25.83 (03:20) 22.22 (03:30) 0 0 0 0 0
22-04-2019 12 (15:40) 4.1 (00:00) 8 25.83 (21:30) 22.78 (21:40) 0 0 0 0 0
21-04-2019 13.6 (13:00) 4.3 (00:00) 9 18.33 (11:20) 12.22 (11:10) 0 0 0 0 0
20-04-2019 13 (15:20) 3.4 (00:00) 8.2 20.56 (02:10) 17.22 (02:20) 0 0 0 0 0
19-04-2019 12.4 (15:10) 3.3 (00:00) 7.8 18.61 (23:40) 13.33 (10:00) 0 0 0 0 0
18-04-2019 12.6 (14:10) -0.1 (00:00) 6.3 17.22 (05:20) 16.11 (06:50) 0 0 0 0 0
17-04-2019 10.3 (00:20) 0.2 (00:00) 5.3 19.44 (09:10) 16.39 (07:20) 0 0 0 0 0
16-04-2019 18 (15:10) 8.7 (00:00) 13.3 19.72 (23:50) 15.83 (23:40) 0 0 0 0 0
15-04-2019 14.9 (14:50) 6.9 (00:00) 10.9 11.94 (04:30) 10 (04:30) 0 0 0 0 0
14-04-2019 16 (16:20) 7.8 (00:00) 11.9 11.11 (16:30) 7.78 (10:10) 0 0 0 0 0
13-04-2019 11.6 (13:30) 2 (00:00) 6.8 11.11 (00:10) 9.17 (00:10) 0 0 0 0 0
12-04-2019 10.4 (15:20) 0.4 (00:00) 5.4 15.56 (02:00) 13.33 (00:20) 0 0 0 0 0
11-04-2019 9.9 (14:20) 1.3 (00:00) 5.6 15.56 (23:00) 13.33 (22:50) 0 0 0 0 0
10-04-2019 10 (14:40) -0.2 (00:00) 4.9 9.44 (10:20) 7.22 (09:40) 0 0 0 0 0
09-04-2019 10.9 (14:00) 0.4 (00:00) 5.6 8.61 (08:10) 7.78 (07:50) 0 0 0 0 0
08-04-2019 13.3 (13:50) 2.9 (00:00) 8.1 11.11 (12:50) 7.78 (12:20) 0 0 0 0 0
07-04-2019 8.4 (16:40) 0.8 (00:00) 4.6 12.5 (11:10) 10.56 (08:30) 0 0 0 0 0
06-04-2019 7 (16:30) -4.2 (-00:0) 1.4 26.11 (02:00) 22.5 (02:00) 0 0 0 0 0
05-04-2019 2.6 (15:00) -2.7 (-00:0) -0.1 28.33 (22:10) 22.5 (22:40) 0.2 0 0 0 0.2
04-04-2019 1.9 (14:40) -3.3 (-00:0) -0.7 18.61 (08:00) 16.39 (07:40) 0.2 0 0.2 0 0
03-04-2019 2.1 (12:50) -2.3 (08:00) -0.1 23.33 (19:40) 19.17 (19:20) 0.8 0.2 0 0.4 0.2
02-04-2019 5.3 (15:20) -1 (-00:0) 2.2 14.17 (04:00) 11.39 (04:00) 6.8 0.6 2.6 3.2 0.4
01-04-2019 6.1 (13:00) -1.2 (-00:0) 2.4 11.67 (00:10) 10.28 (00:10) 3.6 0 0 2.4 1.2
31-03-2019 4.4 (12:20) -1.6 (-00:0) 1.4 13.89 (22:50) 11.67 (11:20) 0 0 0 0 0
30-03-2019 3.3 (15:00) -2.3 (-00:0) 0.5 13.89 (17:50) 11.94 (22:10) 2.2 0 2.2 0 0
29-03-2019 6 (15:10) -1.5 (-00:0) 2.3 11.67 (02:40) 10.28 (02:30) 0.4 0 0.2 0 0.2
28-03-2019 3.3 (11:10) -0.6 (-00:0) 1.3 9.72 (23:20) 8.61 (23:30) 1 0 0 1 0
27-03-2019 5.3 (10:40) -0.1 (00:00) 2.6 10 (00:10) 8.33 (00:10) 5.2 0 0 5.2 0

Gráficas

Temp. máximas Temp. mínimas Temp. medias Precipitaciones Rachas de viento máximas Velocidades máximas media en intervalos de 10 minutos

Datos horarios

Fecha y hora oficial Temperatura (ºC) Velocidad del viento (km/h) Dirección del viento Racha (km/h) Dirección de racha Precipitación (mm) Presión (hPa) Tendencia (hPa) Humedad (%)
2019-04-25 23:00:00 7.6 6 Nordeste 14 Norte 0 771.7 1.4 14
2019-04-25 22:00:00 6.9 9 Norte 16 Norte 0 771.1 0.9 14
2019-04-25 21:00:00 6.4 12 Norte 19 Noroeste 0 770.7 0.7 19
2019-04-25 20:00:00 8.3 14 Noroeste 21 Norte 0 770.3 0.2 25
2019-04-25 19:00:00 9.4 11 Norte 22 Norte 0 770.2 -0.1 28
2019-04-25 18:00:00 10.5 12 Noroeste 23 Norte 0 770 -0.4 29
2019-04-25 17:00:00 10.8 14 Norte 24 Norte 0 770.1 -0.5 32
2019-04-25 16:00:00 11.4 14 Norte 26 Noroeste 0 770.3 -0.5 36
2019-04-25 15:00:00 11.5 15 Norte 27 Norte 0 770.4 -0.4 30
2019-04-25 14:00:00 11.3 14 Norte 31 Norte 0 770.6 0.1 29
2019-04-25 13:00:00 11.7 15 Norte 26 Noroeste 0 770.8 0.7 28
2019-04-25 12:00:00 10.8 14 Noroeste 22 Noroeste 0 770.8 1.1 24
2019-04-25 11:00:00 9.6 12 Noroeste 17 Noroeste 0 770.5 1.3 21
2019-04-25 10:00:00 8.8 13 Noroeste 21 Norte 0 770.1 1.2 24
2019-04-25 09:00:00 7.4 16 Noroeste 22 Norte 0 769.7 0.9 20
2019-04-25 08:00:00 5.7 20 Noroeste 23 Noroeste 0 769.2 0.4 20
2019-04-25 07:00:00 5.6 24 Noroeste 27 Noroeste 0 768.9 -0.1 19
2019-04-25 06:00:00 5.2 24 Noroeste 26 Noroeste 0 768.8 -0.5 22
2019-04-25 05:00:00 5.3 21 Noroeste 23 Noroeste 0 768.8 -1.1 22
2019-04-25 04:00:00 4.9 17 Noroeste 24 Norte 0 769 -1.3 25
2019-04-25 03:00:00 4.7 19 Noroeste 24 Noroeste 0 769.3 -1.1 27
2019-04-25 02:00:00 5.1 21 Noroeste 25 Noroeste 0 769.9 -0.3 27
2019-04-25 01:00:00 5.1 19 Noroeste 27 Noroeste 0 770.3 0.7 28
2019-04-25 00:00:00 5.1 22 Noroeste 26 Noroeste 0 770.4 1.5 29
2019-04-24 23:00:00 5.2 22 Noroeste 30 Noroeste 0 770.2 1.8 28
2019-04-24 22:00:00 5.5 31 Noroeste 40 Noroeste 0 769.6 1.7 27
2019-04-24 21:00:00 6.4 33 Noroeste 36 Noroeste 0 768.9 1.1 29
2019-04-24 20:00:00 7.3 31 Noroeste 41 Noroeste 0 768.4 0.7 35
2019-04-24 19:00:00 8.7 39 Noroeste 46 Noroeste 0 767.9 0.2 37
2019-04-24 18:00:00 9.8 39 Noroeste 48 Norte 0 767.8 0.2 35
2019-04-24 17:00:00 10.7 37 Noroeste 48 Noroeste 0 767.7 0.2 38
2019-04-24 16:00:00 11.2 36 Noroeste 50 Noroeste 0 767.7 0.2 34
2019-04-24 15:00:00 11.5 39 Noroeste 50 Norte 0 767.6 0.3 35
2019-04-24 14:00:00 10.7 40 Norte 50 Norte 0 767.5 0.2 41
2019-04-24 13:00:00 10.2 41 Noroeste 54 Noroeste 0 767.5 1.1 42
2019-04-24 12:00:00 10.1 48 Noroeste 56 Noroeste 0 767.3 1 41
2019-04-24 11:00:00 8.4 40 Noroeste 49 Noroeste 0 767.3 1.8 36
2019-04-24 10:00:00 6.6 43 Noroeste 51 Noroeste 0 766.4 1.1 42
2019-04-24 09:00:00 5.6 39 Noroeste 51 Noroeste 0 766.3 1.2 27
2019-04-24 08:00:00 4.2 43 Noroeste 53 Noroeste 0 765.5 0.6 27
2019-04-24 07:00:00 4.1 44 Noroeste 50 Noroeste 0 765.3 0.4 31
2019-04-24 06:00:00 4.2 36 Noroeste 43 Noroeste 0 765.1 0.3 33
2019-04-24 05:00:00 3.3 36 Noroeste 49 Noroeste 0 764.9 -0.2 35
2019-04-24 04:00:00 3.5 39 Noroeste 50 Noroeste 0 764.9 -0.3 36
2019-04-24 03:00:00 2.7 41 Noroeste 55 Norte 0 764.8 -0.3 51
2019-04-24 02:00:00 3.1 48 Noroeste 63 Norte 0 765.1 0.4 46
2019-04-24 01:00:00 2.9 46 Noroeste 56 Noroeste 0 765.2 0.8 52
2019-04-24 00:00:00 2.5 50 Noroeste 63 Noroeste 0 765.1 1.3 64
2019-04-23 23:00:00 2.5 51 Noroeste 59 Noroeste 0 764.7 1.2 62
2019-04-23 22:00:00 2.7 49 Noroeste 57 Noroeste 0 764.4 0.9 59
2019-04-23 21:00:00 3 52 Noroeste 65 Noroeste 0 763.8 1 59
2019-04-23 20:00:00 4.6 57 Noroeste 72 Noroeste 0 763.5 0 57
2019-04-23 19:00:00 5.4 55 Noroeste 78 Noroeste 0 763.5 -1 43
2019-04-23 18:00:00 6.8 66 Noroeste 81 Noroeste 0 762.8 -1.9 21
2019-04-23 17:00:00 6.4 48 Noroeste 65 Norte 0 763.5 -1.4 57
2019-04-23 16:00:00 7.4 44 Norte 58 Noroeste 0 764.5 -0.5 59
2019-04-23 15:00:00 6.7 31 Noroeste 48 Noroeste 0 764.7 0.6 72
2019-04-23 14:00:00 8 41 Noroeste 59 Noroeste 0 764.9 0.7 56
2019-04-23 13:00:00 7.5 48 Noroeste 70 Noroeste 0 765 1.3 42
2019-04-23 12:00:00 4.7 55 Noroeste 73 Noroeste 0 764.1 0.7 93
2019-04-23 11:00:00 6.2 54 Noroeste 66 Noroeste 0 764.2 1.3 69
2019-04-23 10:00:00 5 56 Noroeste 66 Noroeste 0 763.7 1 66
2019-04-23 09:00:00 4.3 60 Noroeste 75 Noroeste 0 763.4 1 50
2019-04-23 08:00:00 3.8 63 Noroeste 77 Noroeste 0 762.9 0.7 66
2019-04-23 07:00:00 2.9 63 Noroeste 76 Noroeste 0 762.7 0.2 64
2019-04-23 06:00:00 3.2 69 Noroeste 85 Noroeste 0 762.4 -0.7 56
2019-04-23 05:00:00 3.5 75 Noroeste 93 Noroeste 0 762.2 -1.9 53
2019-04-23 04:00:00 3.8 76 Noroeste 93 Noroeste 0 762.5 -2.2 48
2019-04-23 03:00:00 4.1 74 Noroeste 89 Noroeste 0 763.1 -1.5 46
2019-04-23 02:00:00 4.5 69 Noroeste 79 Noroeste 0 764.1 -0.2 45
2019-04-23 01:00:00 4.9 68 Noroeste 80 Noroeste 0 764.7 1.1 44
2019-04-23 00:00:00 4.8 70 Noroeste 89 Noroeste 0 764.6 0.9 43
2019-04-22 23:00:00 5 78 Noroeste 91 Noroeste 0 764.3 0.4 41
2019-04-22 22:00:00 4.8 79 Noroeste 93 Noroeste 0 763.6 -0.8 41
2019-04-22 21:00:00 5 76 Noroeste 88 Noroeste 0 763.7 -1 46
2019-04-22 20:00:00 7.1 76 Noroeste 85 Noroeste 0 763.9 -1.7 41
2019-04-22 19:00:00 8.8 73 Noroeste 83 Noroeste 0 764.4 -1.4 36
2019-04-22 18:00:00 9.8 68 Noroeste 77 Noroeste 0 764.7 -1.4 34
2019-04-22 17:00:00 10.7 60 Noroeste 71 Noroeste 0 765.6 -0.8 36
2019-04-22 16:00:00 11.2 54 Noroeste 70 Norte 0 765.8 -1.1 35
2019-04-22 15:00:00 11.4 53 Norte 68 Norte 0 766.1 -1.1 33
2019-04-22 14:00:00 11.8 50 Norte 63 Norte 0 766.4 -0.6 32
2019-04-22 13:00:00 11 50 Norte 64 Norte 0 766.9 -0.1 33
2019-04-22 12:00:00 10.4 46 Norte 57 Norte 0 767.2 0.5 33
2019-04-22 11:00:00 9.6 42 Norte 54 Norte 0 767 0.9 34
2019-04-22 10:00:00 8 36 Norte 46 Norte 0 767 1.1 33
2019-04-22 09:00:00 5.7 34 Norte 45 Norte 0 766.7 0.5 39
2019-04-22 08:00:00 4.2 40 Norte 54 Norte 0 766.1 -0.1 43
2019-04-22 07:00:00 4.5 39 Norte 50 Norte 0 765.9 -0.6 39
2019-04-22 06:00:00 4.8 36 Norte 46 Norte 0 766.2 -0.7 35
2019-04-22 05:00:00 4.6 37 Norte 49 Norte 0 766.2 -1.1 43
2019-04-22 04:00:00 5.1 35 Norte 44 Norte 0 766.5 -1.1 38
2019-04-22 03:00:00 5.2 33 Norte 44 Norte 0 766.9 -1.1 37
2019-04-22 02:00:00 5.3 35 Norte 50 Nordeste 0 767.3 -0.6 37
2019-04-22 01:00:00 5.4 35 Norte 45 Norte 0 767.6 0.2 38
2019-04-22 00:00:00 6 33 Nordeste 47 Nordeste 0 768 0.9 37
2019-04-21 23:00:00 6.6 35 Nordeste 49 Norte 0 767.9 1.1 34
2019-04-21 22:00:00 6.7 34 Nordeste 44 Nordeste 0 767.4 0.5 34
2019-04-21 21:00:00 7.2 31 Nordeste 44 Nordeste 0 767.1 0.2 34
2019-04-21 20:00:00 9.1 30 Nordeste 41 Nordeste 0 766.8 0 31
2019-04-21 19:00:00 10.5 19 Nordeste 44 Este 0 766.9 -0.1 28
2019-04-21 18:00:00 9.9 25 Este 48 Este 0 766.9 -0.3 29
2019-04-21 17:00:00 10.8 24 Este 45 Este 0 766.8 -0.4 27
2019-04-21 16:00:00 11.7 26 Este 45 Este 0 767 -0.2 24
2019-04-21 15:00:00 12.8 26 Este 46 Este 0 767.2 0 29
2019-04-21 14:00:00 12.2 32 Este 53 Este 0 767.2 0.6 36
2019-04-21 13:00:00 12 38 Este 60 Este 0 767.2 0.8 35
2019-04-21 12:00:00 11.8 39 Este 66 Sudeste 0 767.2 1.5 35
2019-04-21 11:00:00 11.3 42 Este 64 Este 0 766.6 1.4 33
2019-04-21 10:00:00 9.5 32 Este 51 Este 0 766.4 1.4 37
2019-04-21 09:00:00 8.4 18 Nordeste 38 Nordeste 0 765.7 0.9 36
2019-04-21 08:00:00 5.7 28 Nordeste 35 Nordeste 0 765.2 0.4 29
2019-04-21 07:00:00 5.2 24 Norte 40 Nordeste 0 765 0 20
2019-04-21 06:00:00 5.8 25 Nordeste 40 Nordeste 0 764.8 -0.5 16
2019-04-21 05:00:00 6.2 27 Nordeste 43 Norte 0 764.8 -0.9 18
2019-04-21 04:00:00 5.3 28 Norte 45 Norte 0 765 -1.2 21
2019-04-21 03:00:00 4.7 36 Norte 54 Norte 0 765.3 -0.9 31
2019-04-21 02:00:00 5.7 37 Norte 47 Norte 0 765.7 -0.4 30
2019-04-21 01:00:00 5.3 26 Norte 43 Norte 0 766.2 0.4 31
2019-04-21 00:00:00 4.6 26 Noroeste 35 Norte 0 766.2 0.6 24
2019-04-20 23:00:00 4.7 32 Norte 37 Norte 0 766.1 0.8 20
2019-04-20 22:00:00 4.3 31 Noroeste 36 Noroeste 0 765.8 0.5 22
2019-04-20 21:00:00 5.2 28 Norte 40 Norte 0 765.6 0.5 19
2019-04-20 20:00:00 7.4 30 Noroeste 38 Noroeste 0 765.3 -0.2 18
2019-04-20 19:00:00 9.7 27 Noroeste 41 Norte 0 765.3 -0.4 19
2019-04-20 18:00:00 11.2 25 Noroeste 35 Norte 0 765.1 -0.8 17
2019-04-20 17:00:00 11.3 25 Norte 34 Norte 0 765.5 -0.6 12
2019-04-20 16:00:00 11.7 29 Noroeste 39 Norte 0 765.7 -0.4 26
2019-04-20 15:00:00 11.4 26 Noroeste 37 Noroeste 0 765.9 -0.2 27
2019-04-20 14:00:00 11.5 31 Noroeste 44 Noroeste 0 766.1 0.1 34
2019-04-20 13:00:00 10.2 36 Noroeste 50 Norte 0 766.1 0.4 34
2019-04-20 12:00:00 9.9 39 Noroeste 46 Noroeste 0 766.1 0.6 34
2019-04-20 11:00:00 9.3 35 Noroeste 44 Noroeste 0 766 1.1 27
2019-04-20 10:00:00 7.4 38 Noroeste 52 Norte 0 765.7 0.6 22
2019-04-20 09:00:00 6.2 41 Noroeste 47 Noroeste 0 765.5 0.2 20
2019-04-20 08:00:00 5 43 Noroeste 52 Noroeste 0 764.9 -0.3 19
2019-04-20 07:00:00 3.9 40 Noroeste 48 Noroeste 0 765.1 -0.6 27
2019-04-20 06:00:00 4.5 44 Noroeste 58 Noroeste 0 765.3 -0.8 25
2019-04-20 05:00:00 4.4 55 Noroeste 64 Noroeste 0 765.2 -1.5 29
2019-04-20 04:00:00 4.9 50 Noroeste 66 Norte 0 765.7 -1.7 28
2019-04-20 03:00:00 4.7 55 Noroeste 74 Norte 0 766.1 -2.1 29
2019-04-20 02:00:00 4.4 55 Noroeste 69 Noroeste 0 766.7 -1.8 30
2019-04-20 01:00:00 4.8 52 Norte 72 Norte 0 767.4 -1.3 27
2019-04-20 00:00:00 5.2 44 Noroeste 67 Norte 0 768.2 -0.2 23
2019-04-19 23:00:00 5.8 44 Noroeste 61 Noroeste 0 768.5 0.1 17
2019-04-19 22:00:00 5.4 40 Noroeste 51 Noroeste 0 768.7 0.2 13
2019-04-19 21:00:00 6.5 36 Noroeste 51 Norte 0 768.4 0 21
2019-04-19 20:00:00 9.1 33 Norte 45 Norte 0 768.4 0.1 30
2019-04-19 19:00:00 10.2 27 Norte 40 Noroeste 0 768.5 -0.2 29
2019-04-19 18:00:00 10.5 29 Norte 48 Norte 0 768.4 -0.7 32
2019-04-19 17:00:00 11 39 Norte 49 Noroeste 0 768.3 -1.1 25
2019-04-19 16:00:00 11.8 38 Norte 49 Norte 0 768.7 -1 26
2019-04-19 15:00:00 11.8 37 Norte 46 Norte 0 769.1 -0.7 26
2019-04-19 14:00:00 11.6 37 Norte 51 Norte 0 769.4 -0.1 18
2019-04-19 13:00:00 11.1 36 Norte 47 Norte 0 769.7 1 28
2019-04-19 12:00:00 10.5 36 Norte 45 Norte 0 769.8 1.3 26
2019-04-19 11:00:00 9.3 37 Norte 59 Norte 0 769.5 1.2 35
2019-04-19 10:00:00 7.3 48 Norte 62 Noroeste 0 768.7 0.6 21
2019-04-19 09:00:00 6 42 Norte 54 Norte 0 768.5 0.4 32
2019-04-19 08:00:00 4.3 41 Norte 58 Norte 0 768.3 0.2 62
2019-04-19 07:00:00 3.5 42 Noroeste 59 Norte 0 768.1 -0.3 68
2019-04-19 06:00:00 3.9 41 Noroeste 50 Norte 0 768.1 -0.9 65
2019-04-19 05:00:00 3.3 38 Norte 48 Norte 0 768.1 -1.3 66
2019-04-19 04:00:00 3.8 37 Noroeste 48 Norte 0 768.4 -1.3 57
2019-04-19 03:00:00 4.5 33 Norte 45 Norte 0 769 -1 55
2019-04-19 02:00:00 5.2 37 Norte 52 Norte 0 769.4 -0.4 53
2019-04-19 01:00:00 6.6 39 Norte 58 Norte 0 769.7 0.1 37
2019-04-19 00:00:00 6.5 34 Norte 53 Norte 0 770 0.9 37
2019-04-18 23:00:00 7 37 Norte 51 Norte 0 769.8 1.2 32
2019-04-18 22:00:00 7.6 34 Norte 49 Norte 0 769.6 1.3 27
2019-04-18 21:00:00 8.2 36 Norte 54 Norte 0 769.1 0.9 23
2019-04-18 20:00:00 9.5 33 Norte 45 Norte 0 768.6 0.2 23
2019-04-18 19:00:00 10.7 28 Norte 41 Norte 0 768.3 -0.1 23
2019-04-18 18:00:00 11.7 28 Norte 41 Norte 0 768.2 -0.2 24
2019-04-18 17:00:00 11.6 28 Norte 43 Norte 0 768.4 -0.3 30
2019-04-18 16:00:00 10.8 30 Norte 44 Norte 0 768.4 -0.3 40
2019-04-18 15:00:00 11.6 34 Norte 41 Norte 0 768.4 -0.1 42
2019-04-18 14:00:00 12.5 28 Norte 42 Norte 0 768.7 0.4 38
2019-04-18 13:00:00 11.6 29 Norte 42 Norte 0 768.7 0.9 37
2019-04-18 12:00:00 10.4 31 Norte 43 Norte 0 768.5 1.6 41
2019-04-18 11:00:00 9.2 32 Noroeste 42 Norte 0 768.3 2.5 30
2019-04-18 10:00:00 6.7 36 Noroeste 46 Noroeste 0 767.8 2.6 12
2019-04-18 09:00:00 4.7 42 Noroeste 56 Noroeste 0 766.9 1.9 12
2019-04-18 08:00:00 3.6 54 Noroeste 60 Noroeste 0 765.8 1 13
2019-04-18 07:00:00 3.4 58 Noroeste 62 Noroeste 0 765.2 0.1 14
2019-04-18 06:00:00 3.4 55 Noroeste 62 Noroeste 0 765 -1 15
2019-04-18 05:00:00 3.5 57 Noroeste 61 Noroeste 0 764.8 -1.4 16
2019-04-18 04:00:00 2.6 50 Noroeste 55 Noroeste 0 765.1 -1.1 20
2019-04-18 03:00:00 3.4 40 Noroeste 50 Noroeste 0 766 -0.1 24
2019-04-18 02:00:00 1.2 39 Noroeste 51 Noroeste 0 766.2 0.5 73
2019-04-18 01:00:00 1.2 44 Noroeste 56 Noroeste 0 766.2 1.1 100
2019-04-18 00:00:00 0.3 44 Noroeste 58 Noroeste 0 766.1 1.3 99
2019-04-17 23:00:00 0.6 50 Noroeste 61 Noroeste 0 765.7 1.1 97
2019-04-17 22:00:00 3.6 58 Noroeste 66 Noroeste 0 765.1 0.4 35
2019-04-17 21:00:00 3.9 50 Noroeste 62 Noroeste 0 764.8 -0.2 46
2019-04-17 20:00:00 6.1 53 Noroeste 63 Noroeste 0 764.6 -0.3 37
2019-04-17 19:00:00 8.3 51 Noroeste 60 Noroeste 0 764.7 -0.6 38
2019-04-17 18:00:00 8.5 28 Noroeste 40 Noroeste 0 765 -0.6 62
2019-04-17 17:00:00 6.6 27 Noroeste 36 Noroeste 0 764.9 -0.9 92
2019-04-17 16:00:00 7.6 18 Noroeste 35 Noroeste 0 765.3 -0.2 88
2019-04-17 15:00:00 7.9 19 Noroeste 33 Norte 0 765.6 -0.4 93
2019-04-17 14:00:00 7.6 28 Noroeste 51 Noroeste 0 765.8 -0.2 90
2019-04-17 13:00:00 7.4 39 Noroeste 50 Noroeste 0 765.5 0.4 89
2019-04-17 12:00:00 8.8 17 Noroeste 36 Noroeste 0 766 0.8 80
2019-04-17 11:00:00 9.9 18 Noroeste 50 Noroeste 0 766 1.1 61
2019-04-17 10:00:00 6.9 38 Noroeste 70 Noroeste 0 765.1 0.9 56
2019-04-17 09:00:00 7.6 32 Noroeste 56 Noroeste 0 765.2 1 35
2019-04-17 08:00:00 8.2 46 Noroeste 68 Noroeste 0 764.9 0.5 30
2019-04-17 07:00:00 6.9 52 Noroeste 64 Noroeste 0 764.2 -0.7 38
2019-04-17 06:00:00 5.8 39 Noroeste 47 Noroeste 0 764.2 -1.2 38
2019-04-17 05:00:00 5.2 37 Noroeste 50 Noroeste 0 764.4 -1.3 41
2019-04-17 04:00:00 6.8 36 Noroeste 49 Noroeste 0 764.9 -1.4 22
2019-04-17 03:00:00 8.6 30 Oeste 55 Oeste 0 765.4 -0.9 13
2019-04-17 02:00:00 8.1 30 Noroeste 55 Oeste 0 765.7 -0.2 5
2019-04-17 01:00:00 9.1 34 Oeste 64 Oeste 0 766.3 0.6 4
2019-04-17 00:00:00 10 54 Oeste 71 Oeste 0 766.3 1.1 8
2019-04-16 23:00:00 9.1 50 Oeste 68 Oeste 0 765.9 0.5 10
2019-04-16 22:00:00 9.1 52 Oeste 67 Oeste 0 765.7 -0.4 11
2019-04-16 21:00:00 9.7 48 Oeste 63 Oeste 0 765.2 -1 10
2019-04-16 20:00:00 11.2 40 Oeste 56 Oeste 0 765.4 -1.2 9
2019-04-16 19:00:00 13.9 36 Oeste 58 Oeste 0 766.1 -1.2 8
2019-04-16 18:00:00 15 41 Oeste 62 Oeste 0 766.2 -1.4 7
2019-04-16 17:00:00 16.4 40 Oeste 60 Oeste 0 766.6 -1.5 7
2019-04-16 16:00:00 16.7 41 Oeste 64 Oeste 0 767.3 -1.4 7
2019-04-16 15:00:00 17.7 36 Oeste 62 Oeste 0 767.6 -1.4 8
2019-04-16 14:00:00 17.1 32 Oeste 49 Oeste 0 768.1 -0.7 6
2019-04-16 13:00:00 17 25 Oeste 50 Sudoeste 0 768.7 0.3 20
2019-04-16 12:00:00 14.7 9 Este 41 Noroeste 0 769 1.2 31
2019-04-16 11:00:00 14.4 27 Oeste 52 Oeste 0 768.8 1.4 15
2019-04-16 10:00:00 12.6 34 Oeste 58 Oeste 0 768.4 1.2 14
2019-04-16 09:00:00 10.7 44 Oeste 61 Oeste 0 767.8 0.6 20
2019-04-16 08:00:00 9.3 49 Oeste 62 Oeste 0 767.4 -0.2 20
2019-04-16 07:00:00 10.1 49 Sudoeste 61 Oeste 0 767.2 -0.7 17
2019-04-16 06:00:00 10.2 49 Sudoeste 58 Oeste 0 767.2 -1.5 15
2019-04-16 05:00:00 9.8 43 Sudoeste 53 Sudoeste 0 767.6 -1.7 14
2019-04-16 04:00:00 9.9 41 Sudoeste 50 Sudoeste 0 767.9 -2 13
2019-04-16 03:00:00 9.7 37 Sudoeste 47 Sudoeste 0 768.7 -1.5 13
2019-04-16 02:00:00 9.5 35 Sudoeste 41 Sudoeste 0 769.3 -1 13
2019-04-16 01:00:00 9.3 31 Sudoeste 38 Sudoeste 0 769.9 -0.3 13
2019-04-16 00:00:00 9.1 32 Sudoeste 40 Sudoeste 0 770.2 0.3 12
2019-04-15 23:00:00 9.2 20 Sudoeste 27 Sudoeste 0 770.3 0.8 15
2019-04-15 22:00:00 9.4 17 Sudoeste 25 Sudoeste 0 770.2 0.7 19
2019-04-15 21:00:00 10.2 17 Oeste 21 Oeste 0 769.9 0.3 20
2019-04-15 20:00:00 12.1 10 Oeste 23 Noroeste 0 769.5 0 41
2019-04-15 19:00:00 12.8 7 Oeste 21 Norte 0 769.5 -0.3 39
2019-04-15 18:00:00 12.5 11 Norte 19 Oeste 0 769.6 -0.5 42
2019-04-15 17:00:00 12.5 10 Sudeste 21 Sudeste 0 769.5 -0.4 51
2019-04-15 16:00:00 14.1 6 Nordeste 23 Norte 0 769.8 -0.6 49
2019-04-15 15:00:00 13.6 14 Norte 26 Norte 0 770.1 -0.4 31
2019-04-15 14:00:00 13.7 7 Nordeste 27 Nordeste 0 769.9 -0.3 45
2019-04-15 13:00:00 13.8 8 Sudeste 19 Sudeste 0 770.4 0.5 36
2019-04-15 12:00:00 13 5 Norte 23 Sudoeste 0 770.5 0.9 37
2019-04-15 11:00:00 12.8 14 Sur 19 Sudoeste 0 770.2 0.9 22
2019-04-15 10:00:00 12 9 Sur 19 Noroeste 0 769.9 1.1 22
2019-04-15 09:00:00 8.1 20 Noroeste 22 Noroeste 0 769.6 1 25
2019-04-15 08:00:00 8.5 6 Noroeste 13 Noroeste 0 769.3 1 22
2019-04-15 07:00:00 8.6 8 Sur 19 Noroeste 0 768.8 0.4 22
2019-04-15 06:00:00 7.7 15 Noroeste 28 Noroeste 0 768.6 -0.1 22
2019-04-15 05:00:00 7.4 25 Noroeste 43 Noroeste 0 768.3 -0.6 12
2019-04-15 04:00:00 8.8 28 Noroeste 34 Noroeste 0 768.4 -1 8
2019-04-15 03:00:00 8.8 27 Noroeste 39 Noroeste 0 768.7 -0.7 6
2019-04-15 02:00:00 8.5 23 Noroeste 39 Noroeste 0 768.9 -0.5 7
2019-04-15 01:00:00 9.5 22 Noroeste 32 Oeste 0 769.4 0.5 8
2019-04-15 00:00:00 9 15 Oeste 31 Oeste 0 769.4 0.9 12
2019-04-14 23:00:00 8.5 17 Oeste 32 Oeste 0 769.4 0.9 13
2019-04-14 22:00:00 8.2 19 Noroeste 30 Sudoeste 0 768.9 0.8 28
2019-04-14 21:00:00 9.9 23 Sudoeste 35 Sudoeste 0 768.5 0.7 17
2019-04-14 20:00:00 11.5 5 Oeste 19 Noroeste 0 768.5 0.3 28
2019-04-14 19:00:00 11.9 14 Noroeste 35 Sudoeste 0 768.1 -0.2 44
2019-04-14 18:00:00 13.2 23 Sudoeste 38 Sudoeste 0 767.8 -0.9 29
2019-04-14 17:00:00 15 17 Sudoeste 40 Sudoeste 0 768.2 -0.9 35
2019-04-14 16:00:00 15.4 22 Sudoeste 39 Sudoeste 0 768.3 -0.9 27
2019-04-14 15:00:00 15.5 20 Sur 33 Sur 0 768.7 -0.8 33
2019-04-14 14:00:00 15.1 15 Sudoeste 28 Sur 0 769.1 0 38
2019-04-14 13:00:00 13.7 16 Sur 31 Sur 0 769.2 0.5 34
2019-04-14 12:00:00 14.1 20 Sur 34 Sudoeste 0 769.5 1 15
2019-04-14 11:00:00 12.9 23 Sur 37 Sur 0 769.1 0.9 13
2019-04-14 10:00:00 12.4 26 Sur 35 Sur 0 768.7 0.8 14
2019-04-14 09:00:00 10.7 17 Sur 21 Sur 0 768.5 0.8 15
2019-04-14 08:00:00 10.2 17 Sur 20 Sur 0 768.2 0.1 13
2019-04-14 07:00:00 9.5 15 Sur 18 Sudoeste 0 767.9 -0.5 18
2019-04-14 06:00:00 9.5 17 Sudoeste 20 Sur 0 767.7 -1.1 13
2019-04-14 05:00:00 8.8 17 Sur 20 Sur 0 768.1 -1.6 15
2019-04-14 04:00:00 8 18 Sur 22 Sur 0 768.4 -1.7 17
2019-04-14 03:00:00 8.5 20 Sur 21 Sur 0 768.8 -1.4 16
2019-04-14 02:00:00 8.9 12 Sur 14 Sur 0 769.7 -1 16
2019-04-14 01:00:00 8.5 12 Sur 15 Sur 0 770.1 -0.5 18
2019-04-14 00:00:00 8.9 9 Sur 10 Sur 0 770.2 0.2 21
2019-04-13 23:00:00 8.7 5 Oeste 9 Noroeste 0 770.7 1.3 22
2019-04-13 22:00:00 8.7 3 Este 13 Sur 0 770.6 1.3 20
2019-04-13 21:00:00 8.9 13 Sur 23 Sur 0 770 0.9 14
2019-04-13 20:00:00 9.6 21 Sur 30 Sur 0 769.4 0.3 14
2019-04-13 19:00:00 11.2 20 Sur 28 Sur 0 769.3 0.1 14
2019-04-13 18:00:00 11.2 23 Sur 31 Sudeste 0 769.1 -0.5 16
2019-04-13 17:00:00 10.7 23 Sur 35 Sur 0 769.1 -0.8 38
2019-04-13 16:00:00 10.1 21 Sudeste 33 Sudeste 0 769.2 -1 43
2019-04-13 15:00:00 10.3 27 Sudeste 34 Sudeste 0 769.6 -0.5 33
2019-04-13 14:00:00 11.1 20 Sudeste 33 Sudeste 0 769.9 0 33
2019-04-13 13:00:00 10.8 21 Sudeste 35 Sudeste 0 770.2 0.5 27
2019-04-13 12:00:00 9.7 23 Sudeste 34 Este 0 770.1 0.5 30
2019-04-13 11:00:00 9.2 19 Sudeste 30 Sudeste 0 769.9 0.6 28
2019-04-13 10:00:00 9.2 14 Este 27 Este 0 769.7 0.8 28
2019-04-13 09:00:00 7.5 17 Nordeste 30 Nordeste 0 769.6 1 22
2019-04-13 08:00:00 5.6 18 Nordeste 24 Nordeste 0 769.3 0.6 26
2019-04-13 07:00:00 5.2 22 Nordeste 28 Nordeste 0 768.9 0.1 28
2019-04-13 06:00:00 4.2 21 Norte 29 Nordeste 0 768.6 -0.4 36
2019-04-13 05:00:00 3.7 23 Norte 30 Nordeste 0 768.7 -0.7 43
2019-04-13 04:00:00 3.9 16 Norte 27 Nordeste 0 768.8 -0.9 40
2019-04-13 03:00:00 3.3 21 Norte 36 Norte 0 769 -0.6 45
2019-04-13 02:00:00 2.5 24 Norte 36 Norte 0 769.4 -0.4 61
2019-04-13 01:00:00 2.6 30 Norte 40 Norte 0 769.7 0.2 57
2019-04-13 00:00:00 2 32 Norte 42 Norte 0 769.6 0.7 73
2019-04-12 23:00:00 1.9 29 Norte 37 Norte 0 769.8 1 74
2019-04-12 22:00:00 2.4 24 Norte 35 Norte 0 769.5 0.8 61
2019-04-12 21:00:00 3 28 Norte 35 Norte 0 768.9 0.3 46
2019-04-12 20:00:00 5.4 27 Norte 42 Norte 0 768.8 0.2 39
2019-04-12 19:00:00 7.1 30 Norte 42 Norte 0 768.7 0.1 36
2019-04-12 18:00:00 7.8 30 Norte 40 Norte 0 768.6 -0.2 20
2019-04-12 17:00:00 8.3 27 Norte 47 Norte 0 768.6 -0.6 23
2019-04-12 16:00:00 9.4 33 Norte 47 Norte 0 768.6 -0.7 29
2019-04-12 15:00:00 10.2 37 Norte 48 Norte 0 768.8 -0.8 27
2019-04-12 14:00:00 9 27 Norte 45 Norte 0 769.2 -0.4 38
2019-04-12 13:00:00 8.7 32 Norte 48 Norte 0 769.3 0 25
2019-04-12 12:00:00 9 32 Norte 44 Nordeste 0 769.6 0.6 21
2019-04-12 11:00:00 8.1 30 Norte 43 Norte 0 769.6 1 19
2019-04-12 10:00:00 6.9 27 Norte 41 Norte 0 769.3 1.1 25
2019-04-12 09:00:00 4.8 32 Norte 48 Norte 0 769 1.1 26
2019-04-12 08:00:00 3.7 36 Norte 51 Nordeste 0 768.6 1.1 31
2019-04-12 07:00:00 4.2 26 Norte 41 Nordeste 0 768.2 0.4 26
2019-04-12 06:00:00 3.4 30 Norte 49 Norte 0 767.9 -0.2 16
2019-04-12 05:00:00 1.4 37 Norte 53 Norte 0 767.5 -1.1 22
2019-04-12 04:00:00 2 36 Norte 49 Norte 0 767.8 -1.2 18
2019-04-12 03:00:00 1.5 40 Norte 50 Norte 0 768.1 -1 25
2019-04-12 02:00:00 1.5 46 Norte 56 Norte 0 768.6 -0.5 45
2019-04-12 01:00:00 0.7 33 Noroeste 53 Noroeste 0 769 -0.2 63
2019-04-12 00:00:00 2.3 44 Noroeste 54 Noroeste 0 769.1 0.8 41
2019-04-11 23:00:00 1.9 47 Noroeste 56 Noroeste 0 769.1 0.6 33
2019-04-11 22:00:00 1.8 29 Noroeste 41 Noroeste 0 769.2 0.9 36
2019-04-11 21:00:00 1.7 35 Noroeste 42 Noroeste 0 768.3 -0.2 60
2019-04-11 20:00:00 4.4 35 Noroeste 45 Noroeste 0 768.5 -0.2 45
2019-04-11 19:00:00 6.5 33 Norte 41 Norte 0 768.3 -0.6 34
2019-04-11 18:00:00 7.7 26 Noroeste 40 Noroeste 0 768.5 -0.9 30
2019-04-11 17:00:00 8.2 22 Norte 31 Noroeste 0 768.7 -0.8 22
2019-04-11 16:00:00 9.2 21 Norte 31 Norte 0 768.9 -1 35
2019-04-11 15:00:00 8.6 19 Norte 40 Norte 0 769.4 -0.7 29
2019-04-11 14:00:00 9.4 22 Norte 32 Norte 0 769.5 -0.5 25
2019-04-11 13:00:00 8.5 19 Norte 29 Norte 0 769.9 0.2 31
2019-04-11 12:00:00 8.5 18 Norte 26 Norte 0 770.1 0.9 25
2019-04-11 11:00:00 7.1 16 Norte 26 Norte 0 770 1.3 20
2019-04-11 10:00:00 5.3 23 Norte 31 Nordeste 0 769.7 1.3 15
2019-04-11 09:00:00 3.7 29 Norte 37 Norte 0 769.2 1 10
2019-04-11 08:00:00 2.6 27 Norte 40 Norte 0 768.7 0.4 11
2019-04-11 07:00:00 2.6 24 Norte 37 Norte 0 768.4 -0.1 17
2019-04-11 06:00:00 2.2 20 Norte 33 Norte 0 768.2 -0.8 13
2019-04-11 05:00:00 2.9 25 Norte 35 Norte 0 768.3 -0.8 10
2019-04-11 04:00:00 2.9 21 Norte 30 Norte 0 768.5 -1.1 11
2019-04-11 03:00:00 3.1 22 Norte 27 Nordeste 0 769 -0.7 10
2019-04-11 02:00:00 3 21 Nordeste 29 Nordeste 0 769.1 -0.9 10
2019-04-11 01:00:00 3.2 21 Nordeste 28 Nordeste 0 769.6 -0.1 15
2019-04-11 00:00:00 4.3 15 Nordeste 25 Nordeste 0 769.7 0.5 31
2019-04-10 23:00:00 4.5 13 Nordeste 23 Nordeste 0 770 1.1 21
2019-04-10 22:00:00 3.5 18 Nordeste 26 Nordeste 0 769.7 1 12
2019-04-10 21:00:00 3.4 17 Norte 22 Norte 0 769.2 0.8 16
2019-04-10 20:00:00 6.2 13 Norte 20 Norte 0 768.9 0.6 21
2019-04-10 19:00:00 7.4 10 Nordeste 26 Norte 0 768.7 0.1 19
2019-04-10 18:00:00 7.9 18 Norte 31 Norte 0 768.4 -0.2 11
2019-04-10 17:00:00 8.9 21 Norte 33 Norte 0 768.3 -0.6 18
2019-04-10 16:00:00 9.2 19 Norte 34 Norte 0 768.6 -0.5 17
2019-04-10 15:00:00 9.7 21 Norte 31 Norte 0 768.6 -0.6 20
2019-04-10 14:00:00 9.5 18 Norte 30 Norte 0 768.9 0 16
2019-04-10 13:00:00 8.4 22 Norte 30 Norte 0 769.1 0.7 27
2019-04-10 12:00:00 6.9 22 Norte 32 Norte 0 769.2 1 36
2019-04-10 11:00:00 6.2 22 Norte 34 Norte 0 768.9 1.3 24
2019-04-10 10:00:00 4.8 25 Noroeste 32 Norte 0 768.4 1 14
2019-04-10 09:00:00 3.9 21 Norte 27 Norte 0 768.2 0.9 11
2019-04-10 08:00:00 2.4 18 Norte 26 Noroeste 0 767.6 0.2 12
2019-04-10 07:00:00 1.9 22 Noroeste 30 Norte 0 767.4 -0.2 18
2019-04-10 06:00:00 3 22 Norte 30 Norte 0 767.3 -0.5 11
2019-04-10 05:00:00 2.7 20 Norte 27 Norte 0 767.4 -0.8 13
2019-04-10 04:00:00 2.3 17 Norte 27 Norte 0 767.6 -1 23
2019-04-10 03:00:00 1.7 14 Norte 27 Norte 0 767.8 -1 43
2019-04-10 02:00:00 1 19 Norte 26 Norte 0 768.2 -0.8 66
2019-04-10 01:00:00 1.3 15 Norte 27 Norte 0 768.6 -0.2 49
2019-04-10 00:00:00 0.6 20 Noroeste 30 Norte 0 768.8 0.4 100
2019-04-09 23:00:00 0.9 22 Noroeste 27 Noroeste 0 769 0.9 100
2019-04-09 22:00:00 3.1 23 Norte 28 Norte 0 768.8 0.7 37
2019-04-09 21:00:00 3.9 20 Noroeste 28 Noroeste 0 768.4 0.4 30
2019-04-09 20:00:00 6.4 22 Noroeste 30 Norte 0 768.1 -0.1 17
2019-04-09 19:00:00 7.9 17 Norte 26 Norte 0 768.1 -0.4 24
2019-04-09 18:00:00 9.4 19 Noroeste 25 Noroeste 0 768 -0.9 27
2019-04-09 17:00:00 8.8 14 Noroeste 23 Noroeste 0 768.2 -1.2 68
2019-04-09 16:00:00 9.2 14 Noroeste 25 Noroeste 0 768.5 -1.1 49
2019-04-09 15:00:00 7.5 11 Norte 24 Nordeste 0 768.9 -0.8 71
2019-04-09 14:00:00 10.7 9 Norte 22 Nordeste 0 769.4 -0.2 73
2019-04-09 13:00:00 9.3 10 Norte 21 Noroeste 0 769.6 0.2 64
2019-04-09 12:00:00 7.8 12 Noroeste 22 Norte 0 769.7 0.5 56
2019-04-09 11:00:00 8.5 10 Noroeste 21 Noroeste 0 769.6 0.9 29
2019-04-09 10:00:00 6.8 8 Norte 24 Noroeste 0 769.4 0.9 16
2019-04-09 09:00:00 6.3 18 Noroeste 31 Noroeste 0 769.2 0.7 18
2019-04-09 08:00:00 4.9 27 Noroeste 31 Noroeste 0 768.7 0.1 18
2019-04-09 07:00:00 4.5 21 Noroeste 23 Noroeste 0 768.5 -0.4 16
2019-04-09 06:00:00 4.8 23 Noroeste 27 Noroeste 0 768.5 -0.8 16
2019-04-09 05:00:00 4.7 20 Noroeste 24 Noroeste 0 768.6 -1.1 15
2019-04-09 04:00:00 4.7 19 Noroeste 23 Noroeste 0 768.9 -1.3 17
2019-04-09 03:00:00 4.9 19 Noroeste 22 Noroeste 0 769.3 -1 17
2019-04-09 02:00:00 4.8 19 Noroeste 21 Noroeste 0 769.7 -0.8 11
2019-04-09 01:00:00 4.9 18 Noroeste 21 Noroeste 0 770.2 0.1 9
2019-04-09 00:00:00 4.7 14 Noroeste 18 Noroeste 0 770.3 0.8 7
2019-04-08 23:00:00 5 13 Noroeste 18 Noroeste 0 770.5 1.3 6
2019-04-08 22:00:00 4.9 17 Noroeste 20 Noroeste 0 770.1 1.2 6
2019-04-08 21:00:00 5.3 17 Noroeste 19 Noroeste 0 769.5 0.7 7
2019-04-08 20:00:00 7.3 18 Noroeste 27 Noroeste 0 769.2 0.3 6
2019-04-08 19:00:00 8.7 22 Noroeste 31 Noroeste 0 768.9 -0.4 9
2019-04-08 18:00:00 9 23 Noroeste 35 Noroeste 0 768.8 -0.8 10
2019-04-08 17:00:00 9.6 25 Noroeste 35 Noroeste 0 768.9 -1.2 13
2019-04-08 16:00:00 9.6 21 Noroeste 34 Noroeste 0 769.3 -1 23
2019-04-08 15:00:00 9.9 21 Noroeste 30 Noroeste 0 769.6 -0.8 37
2019-04-08 14:00:00 11.3 26 Norte 40 Norte 0 770.1 -0.4 47
2019-04-08 13:00:00 12.5 28 Noroeste 40 Norte 0 770.3 0 18
2019-04-08 12:00:00 11.3 27 Noroeste 34 Noroeste 0 770.4 0.6 17
2019-04-08 11:00:00 10.3 15 Norte 20 Noroeste 0 770.5 1.1 18
2019-04-08 10:00:00 8.7 6 Norte 13 Noroeste 0 770.3 1.2 9
2019-04-08 09:00:00 6.9 9 Noroeste 16 Norte 0 769.8 0.8 7
2019-04-08 08:00:00 5.4 13 Norte 19 Norte 0 769.4 0.3 4
2019-04-08 07:00:00 5.3 11 Norte 20 Norte 0 769.1 -0.1 5
2019-04-08 06:00:00 5 11 Noroeste 14 Noroeste 0 769 -0.6 7
2019-04-08 05:00:00 5.1 11 Noroeste 20 Norte 0 769.1 -0.7 9
2019-04-08 04:00:00 5 15 Norte 20 Norte 0 769.2 -0.8 13
2019-04-08 03:00:00 4.2 13 Noroeste 20 Norte 0 769.6 -0.6 23
2019-04-08 02:00:00 4 19 Noroeste 21 Noroeste 0 769.8 -0.4 30
2019-04-08 01:00:00 2.9 18 Noroeste 22 Noroeste 0 770 0.3 55
2019-04-08 00:00:00 3.5 17 Noroeste 28 Noroeste 0 770.2 1.1 47
2019-04-07 23:00:00 3.6 25 Noroeste 32 Noroeste 0 770.2 1.3 45
2019-04-07 22:00:00 2.9 26 Noroeste 30 Noroeste 0 769.7 1 52
2019-04-07 21:00:00 2.5 29 Noroeste 35 Noroeste 0 769.1 0 71
2019-04-07 20:00:00 4.6 34 Noroeste 42 Noroeste 0 768.9 -0.3 69
2019-04-07 19:00:00 6.6 36 Noroeste 42 Noroeste 0 768.7 -0.6 66
2019-04-07 18:00:00 8.2 30 Noroeste 37 Noroeste 0 769.1 -0.4 66
2019-04-07 17:00:00 8 22 Noroeste 31 Noroeste 0 769.2 -0.6 71
2019-04-07 16:00:00 7.7 22 Noroeste 36 Noroeste 0 769.3 -0.7 65
2019-04-07 15:00:00 7.3 30 Noroeste 44 Noroeste 0 769.5 -0.4 60
2019-04-07 14:00:00 7.4 33 Noroeste 40 Noroeste 0 769.8 0.3 63
2019-04-07 13:00:00 7 34 Noroeste 45 Noroeste 0 770 0.9 65
2019-04-07 12:00:00 6.2 30 Noroeste 45 Noroeste 0 769.9 1.5 72
2019-04-07 11:00:00 4.9 36 Noroeste 42 Norte 0 769.5 1.6 69
2019-04-07 10:00:00 3.7 29 Noroeste 39 Noroeste 0 769.1 1.3 67
2019-04-07 09:00:00 2.1 37 Noroeste 40 Noroeste 0 768.4 0.8 71
2019-04-07 08:00:00 1 35 Noroeste 37 Noroeste 0 767.9 0.3 69
2019-04-07 07:00:00 1.5 31 Noroeste 35 Noroeste 0 767.8 0 75
2019-04-07 06:00:00 1.7 30 Noroeste 33 Noroeste 0 767.6 -0.7 76
2019-04-07 05:00:00 1.6 31 Noroeste 35 Noroeste 0 767.6 -1.1 75
2019-04-07 04:00:00 1.8 32 Noroeste 36 Noroeste 0 767.8 -1.6 75
2019-04-07 03:00:00 1.7 32 Noroeste 36 Noroeste 0 768.3 -1.3 73
2019-04-07 02:00:00 1.6 30 Noroeste 36 Norte 0 768.7 -0.9 71
2019-04-07 01:00:00 1.9 24 Norte 31 Norte 0 769.4 0.3 64
2019-04-07 00:00:00 1.7 23 Noroeste 28 Noroeste 0 769.6 0.9 58
2019-04-06 23:00:00 2.1 23 Norte 33 Noroeste 0 769.6 1 56
2019-04-06 22:00:00 1.9 30 Norte 40 Norte 0 769.1 0.5 57
2019-04-06 21:00:00 2.6 30 Norte 37 Noroeste 0 768.7 0.2 51
2019-04-06 20:00:00 4.6 26 Norte 33 Norte 0 768.6 0.4 48
2019-04-06 19:00:00 5.5 26 Norte 35 Norte 0 768.6 0.4 54
2019-04-06 18:00:00 6.2 25 Norte 41 Noroeste 0 768.5 0 59
2019-04-06 17:00:00 6.4 31 Norte 42 Norte 0 768.2 -0.4 55
2019-04-06 16:00:00 6.7 36 Norte 49 Norte 0 768.2 -0.4 61
2019-04-06 15:00:00 6.2 34 Norte 48 Norte 0 768.5 0.3 41
2019-04-06 14:00:00 5.3 35 Norte 48 Norte 0 768.6 0.9 53
2019-04-06 13:00:00 3.1 39 Noroeste 50 Norte 0 768.6 1.4 56
2019-04-06 12:00:00 1.2 42 Noroeste 60 Norte 0 768.2 2 74
2019-04-06 11:00:00 0.2 46 Norte 66 Norte 0 767.7 2.1 92
2019-04-06 10:00:00 -0.9 42 Noroeste 65 Norte 0 767.2 2.1 100
2019-04-06 09:00:00 -1.5 47 Noroeste 54 Noroeste 0 766.2 1.5 100
2019-04-06 08:00:00 -3.6 45 Noroeste 52 Noroeste 0 765.6 1.4 98
2019-04-06 07:00:00 -3.3 50 Noroeste 64 Noroeste 0 765.1 1.3 100
2019-04-06 06:00:00 -3.8 56 Noroeste 70 Noroeste 0 764.7 1 100
2019-04-06 05:00:00 -1.9 57 Noroeste 79 Noroeste 0 764.2 0.1 100
2019-04-06 04:00:00 -1.1 68 Noroeste 91 Noroeste 0 763.8 -0.9 100
2019-04-06 03:00:00 -1.5 78 Noroeste 93 Noroeste 0 763.7 -1.3 100
2019-04-06 02:00:00 -0.8 81 Noroeste 94 Noroeste 0 764.1 -0.6 100
2019-04-06 01:00:00 -1.7 71 Noroeste 89 Noroeste 0 764.7 0.6 100
2019-04-06 00:00:00 -1.1 71 Noroeste 90 Noroeste 0 765 0.7 100
2019-04-05 23:00:00 -1 77 Noroeste 102 Noroeste 0 764.7 0.8 100
2019-04-05 22:00:00 -0.7 77 Noroeste 92 Noroeste 0 764.1 -0.4 100
2019-04-05 21:00:00 -0.6 68 Noroeste 90 Noroeste 0 764.3 -0.2 100
2019-04-05 20:00:00 -0.1 69 Noroeste 89 Noroeste 0.2 763.9 -0.7 100
2019-04-05 19:00:00 0.4 72 Noroeste 90 Noroeste 0 764.5 -0.7 100
2019-04-05 18:00:00 1.5 67 Norte 87 Norte 0 764.5 -1.4 100
2019-04-05 17:00:00 1.7 63 Noroeste 90 Noroeste 0 764.6 -1.4 100
2019-04-05 16:00:00 1.7 56 Noroeste 72 Noroeste 0 765.2 -1.2 100
2019-04-05 15:00:00 2.4 50 Noroeste 70 Noroeste 0 765.9 -0.6 97
2019-04-05 14:00:00 2 54 Noroeste 72 Noroeste 0 766 0.6 96
2019-04-05 13:00:00 1.7 42 Noroeste 59 Norte 0 766.4 1.6 100
2019-04-05 12:00:00 1.5 39 Noroeste 62 Noroeste 0 766.5 2 100
2019-04-05 11:00:00 0.1 49 Noroeste 59 Noroeste 0 765.4 1.4 100
2019-04-05 10:00:00 -1.1 48 Noroeste 55 Noroeste 0 764.8 0.8 100
2019-04-05 09:00:00 -0.6 46 Noroeste 64 Noroeste 0 764.5 1.1 68
2019-04-05 08:00:00 -1.1 49 Noroeste 59 Noroeste 0 764 0.3 80
2019-04-05 07:00:00 -0.9 39 Noroeste 49 Noroeste 0 764 0.1 84
2019-04-05 06:00:00 -2.6 41 Noroeste 48 Noroeste 0 763.4 -0.7 100
2019-04-05 05:00:00 -1 37 Noroeste 46 Noroeste 0 763.7 -0.7 59
2019-04-05 04:00:00 -0.6 40 Noroeste 46 Noroeste 0 763.9 -0.6 60
2019-04-05 03:00:00 -0.5 34 Noroeste 39 Noroeste 0 764.1 -0.3 54
2019-04-05 02:00:00 -0.4 32 Noroeste 38 Noroeste 0 764.4 0.3 55
2019-04-05 01:00:00 -1 32 Noroeste 39 Noroeste 0 764.5 1 93
2019-04-05 00:00:00 -1.3 34 Noroeste 43 Noroeste 0 764.4 1.5 99
2019-04-04 23:00:00 0.3 35 Noroeste 46 Noroeste 0 764.1 1.5 100
2019-04-04 22:00:00 0.7 42 Noroeste 55 Noroeste 0 763.5 1 100
2019-04-04 21:00:00 -0.1 45 Noroeste 58 Noroeste 0 762.9 0.4 100
2019-04-04 20:00:00 0.6 42 Noroeste 58 Noroeste 0 762.6 0 100
2019-04-04 19:00:00 0.8 39 Noroeste 54 Noroeste 0 762.5 0 100
2019-04-04 18:00:00 0.9 38 Noroeste 54 Noroeste 0 762.5 -0.3 100
2019-04-04 17:00:00 1.1 40 Noroeste 55 Noroeste 0 762.6 -0.4 100
2019-04-04 16:00:00 1.3 43 Noroeste 61 Noroeste 0 762.5 0.4 100
2019-04-04 15:00:00 1.4 35 Noroeste 47 Noroeste 0 762.8 0.2 100
2019-04-04 14:00:00 1 40 Noroeste 67 Noroeste 0 763 0.8 100
2019-04-04 13:00:00 0.9 54 Noroeste 64 Noroeste 0 762.1 0.8 100
2019-04-04 12:00:00 1.2 41 Norte 53 Norte 0.2 762.6 2.2 100
2019-04-04 11:00:00 0.5 42 Norte 57 Noroeste 0 762.2 3 100
2019-04-04 10:00:00 -0.2 43 Noroeste 54 Noroeste 0 761.3 2 100
2019-04-04 09:00:00 -0.9 47 Noroeste 62 Noroeste 0 760.4 0.7 100
2019-04-04 08:00:00 -0.9 56 Noroeste 67 Noroeste 0 759.2 -0.6 100
2019-04-04 07:00:00 -1.1 41 Noroeste 46 Noroeste 0 759.3 -1 100
2019-04-04 06:00:00 -1.4 28 Noroeste 44 Noroeste 0 759.7 -0.8 100
2019-04-04 05:00:00 -1.7 21 Noroeste 28 Noroeste 0 759.8 -1.2 100
2019-04-04 04:00:00 -2.2 14 Noroeste 23 Noroeste 0 760.3 -1.1 100
2019-04-04 03:00:00 -1.9 22 Noroeste 27 Noroeste 0 760.5 -1.4 100
2019-04-04 02:00:00 -2.5 18 Noroeste 26 Noroeste 0 761 -0.7 100
2019-04-04 01:00:00 -3.2 19 Noroeste 24 Noroeste 0 761.4 1 100
2019-04-04 00:00:00 -1.6 5 Oeste 28 Noroeste 0 761.9 1.9 100
2019-04-03 23:00:00 -1.2 27 Noroeste 52 Noroeste 0 761.7 2.4 100
2019-04-03 22:00:00 -0.6 46 Noroeste 60 Noroeste 0 760.4 1.7 100
2019-04-03 21:00:00 -0.6 50 Noroeste 66 Noroeste 0.2 760 0.7 100
2019-04-03 20:00:00 -0.4 60 Noroeste 84 Noroeste 0 759.3 0 100
2019-04-03 19:00:00 0 68 Noroeste 82 Noroeste 0 758.7 -1.2 100
2019-04-03 18:00:00 0.1 55 Noroeste 73 Noroeste 0 759.3 -0.9 100
2019-04-03 17:00:00 -0.1 49 Noroeste 70 Noroeste 0 759.3 -1.7 100
2019-04-03 16:00:00 0.6 45 Noroeste 60 Noroeste 0.4 759.9 -1.7 100
2019-04-03 15:00:00 0.8 41 Noroeste 54 Noroeste 0 760.2 -1.6 100
2019-04-03 14:00:00 0.5 32 Noroeste 42 Norte 0 761 -0.4 100
2019-04-03 13:00:00 1.3 10 Norte 27 Norte 0 761.6 0.6 100
2019-04-03 12:00:00 0.4 10 Norte 23 Norte 0 761.8 1.2 100
2019-04-03 11:00:00 0.5 5 Oeste 16 Noroeste 0 761.4 1.2 93
2019-04-03 10:00:00 0 15 Noroeste 21 Noroeste 0 761 1.1 70
2019-04-03 09:00:00 -0.5 16 Noroeste 30 Noroeste 0 760.6 0.8 36
2019-04-03 08:00:00 -2.1 18 Oeste 35 Sudoeste 0 760.2 0.3 64
2019-04-03 07:00:00 -1.5 27 Sudoeste 35 Oeste 0 759.9 -0.4 45
2019-04-03 06:00:00 -1 28 Sudoeste 40 Sudoeste 0 759.8 -0.9 51
2019-04-03 05:00:00 -0.6 31 Sudoeste 38 Sudoeste 0 759.9 -1.1 55
2019-04-03 04:00:00 -0.5 31 Sudoeste 37 Sudoeste 0 760.3 -1.3 58
2019-04-03 03:00:00 -0.8 31 Sudoeste 36 Sudoeste 0 760.7 -1.2 78
2019-04-03 02:00:00 -1.5 31 Oeste 39 Sudoeste 0.2 761 -0.8 96
2019-04-03 01:00:00 -1.4 25 Sudoeste 31 Sudoeste 0 761.6 0.2 99
2019-04-03 00:00:00 -0.6 16 Sudoeste 25 Sudoeste 0 761.9 0.9 100
2019-04-02 23:00:00 0.5 9 Sudoeste 15 Sudoeste 0 761.8 1.1 100
2019-04-02 22:00:00 0.2 10 Oeste 13 Oeste 0 761.4 0.7 100
2019-04-02 21:00:00 1.6 10 Noroeste 15 Norte 0.2 761 0.3 100
2019-04-02 20:00:00 2.1 9 Noroeste 22 Norte 0 760.7 0.1 100
2019-04-02 19:00:00 3.3 7 Norte 22 Norte 0.2 760.7 -0.2 100
2019-04-02 18:00:00 4 4 Sudoeste 18 Norte 0.8 760.7 -0.5 100
2019-04-02 17:00:00 4 5 Norte 22 Noroeste 1.4 760.6 -0.9 100
2019-04-02 16:00:00 4.2 7 Norte 29 Sudoeste 0.2 760.9 -0.8 100
2019-04-02 15:00:00 5 11 Sur 28 Sur 0.2 761.2 -0.4 100
2019-04-02 14:00:00 4 18 Sur 37 Sudoeste 0 761.5 0.2 100
2019-04-02 13:00:00 4.1 12 Sudoeste 26 Oeste 0.6 761.7 0.7 100
2019-04-02 12:00:00 3.2 16 Sudoeste 28 Sudoeste 0.6 761.6 1.1 100
2019-04-02 11:00:00 2 22 Sur 31 Sudoeste 1.6 761.3 1.1 100
2019-04-02 10:00:00 2.2 28 Sudoeste 41 Sudoeste 0.2 761 0.8 100
2019-04-02 09:00:00 1.6 26 Sudoeste 42 Sudoeste 0 760.5 0.5 100
2019-04-02 08:00:00 0.9 22 Sur 40 Sudoeste 0 760.2 0.1 100
2019-04-02 07:00:00 1.1 30 Sudoeste 42 Sudoeste 0.2 760.2 0.1 100
2019-04-02 06:00:00 0.6 30 Sudoeste 40 Sudoeste 0 760 -0.4 100
2019-04-02 05:00:00 0.7 33 Sur 48 Sur 0.2 760.1 -1 100
2019-04-02 04:00:00 0.7 41 Sur 51 Sur 0.2 760.1 -1.7 100
2019-04-02 03:00:00 1.5 38 Sur 46 Sur 0.2 760.4 -2.2 100
2019-04-02 02:00:00 0.7 38 Sur 46 Sur 0 761.1 -1.5 100
2019-04-02 01:00:00 1.1 26 Sur 33 Sur 0 761.8 -0.6 100
2019-04-02 00:00:00 1.9 18 Sudoeste 27 Sur 0.4 762.6 0.5 100
2019-04-01 23:00:00 2.2 17 Sur 25 Sudoeste 0 762.6 0.7 100
2019-04-01 22:00:00 2.2 17 Sudoeste 23 Sudoeste 0 762.4 0.4 100
2019-04-01 21:00:00 2.4 17 Sudoeste 24 Sudoeste 0.2 762.1 0.1 100
2019-04-01 20:00:00 2.5 10 Sur 18 Sur 0.2 761.9 -0.1 100
2019-04-01 19:00:00 2.7 15 Sudoeste 21 Sudoeste 0.4 762 -0.4 100
2019-04-01 18:00:00 3.3 11 Sudoeste 28 Sudoeste 0.4 762 -1 100
2019-04-01 17:00:00 3.3 8 Noroeste 20 Oeste 0.4 762 -1.6 100
2019-04-01 16:00:00 3.6 13 Sudoeste 21 Sur 0 762.4 -1.6 100
2019-04-01 15:00:00 3.2 16 Sur 22 Sudoeste 1.6 763 -1.4 100
2019-04-01 14:00:00 3.3 10 Sur 27 Este 0 763.6 -0.6 100
2019-04-01 13:00:00 6.1 7 Norte 26 Norte 0 764 -0.1 74
2019-04-01 12:00:00 5.5 17 Noroeste 26 Noroeste 0 764.4 0.7 56
2019-04-01 11:00:00 4.2 14 Norte 20 Norte 0 764.2 0.7 89
2019-04-01 10:00:00 2.8 12 Oeste 24 Oeste 0 764.1 1 68
2019-04-01 09:00:00 0.8 16 Noroeste 27 Noroeste 0 763.7 0.9 88
2019-04-01 08:00:00 -0.2 9 Oeste 23 Oeste 0 763.5 0.7 84
2019-04-01 07:00:00 -0.1 13 Oeste 21 Noroeste 0 763.1 -0.2 82
2019-04-01 06:00:00 -0.6 19 Noroeste 29 Noroeste 0 762.8 -0.7 84
2019-04-01 05:00:00 -0.8 26 Noroeste 30 Noroeste 0 762.8 -1 89
2019-04-01 04:00:00 -0.8 13 Noroeste 27 Noroeste 0 763.3 -1.1 92
2019-04-01 03:00:00 -0.9 28 Noroeste 40 Noroeste 0 763.5 -0.9 96
2019-04-01 02:00:00 -1.1 32 Noroeste 35 Noroeste 0 763.8 -0.6 100
2019-04-01 01:00:00 -0.4 30 Noroeste 42 Noroeste 0 764.4 0.1 100
2019-04-01 00:00:00 0.9 35 Noroeste 46 Noroeste 0 764.4 0.1 100
2019-03-31 23:00:00 0.7 40 Noroeste 50 Noroeste 0 764.4 0.1 100
2019-03-31 22:00:00 0.5 41 Noroeste 48 Noroeste 0 764.3 -0.1 100
2019-03-31 21:00:00 0.5 29 Noroeste 35 Noroeste 0 764.3 0.1 100
2019-03-31 20:00:00 1.1 28 Noroeste 37 Noroeste 0 764.3 0 100
2019-03-31 19:00:00 1.9 29 Noroeste 41 Noroeste 0 764.4 -0.2 100
2019-03-31 18:00:00 2.5 27 Noroeste 47 Noroeste 0 764.2 -0.7 100
2019-03-31 17:00:00 2.5 26 Noroeste 37 Noroeste 0 764.3 -0.9 100
2019-03-31 16:00:00 3.2 27 Noroeste 41 Norte 0 764.6 -0.8 100
2019-03-31 15:00:00 3.3 28 Noroeste 48 Noroeste 0 764.9 -0.7 98
2019-03-31 14:00:00 3.2 29 Noroeste 39 Noroeste 0 765.2 -0.2 100
2019-03-31 13:00:00 3.6 30 Noroeste 41 Noroeste 0 765.4 0.3 95
2019-03-31 12:00:00 3.7 36 Noroeste 49 Norte 0 765.6 1 89
2019-03-31 11:00:00 1.7 36 Noroeste 44 Noroeste 0 765.4 0.9 100
2019-03-31 10:00:00 1.4 33 Noroeste 44 Noroeste 0 765.1 1.1 89
2019-03-31 09:00:00 0 26 Noroeste 32 Noroeste 0 764.6 0.8 100
2019-03-31 08:00:00 -0.9 20 Noroeste 32 Noroeste 0 764.5 0.3 100
2019-03-31 07:00:00 -0.7 26 Noroeste 31 Noroeste 0 764 -0.9 100
2019-03-31 06:00:00 -0.9 28 Noroeste 37 Noroeste 0 763.8 -0.8 100
2019-03-31 05:00:00 -1.2 30 Noroeste 32 Noroeste 0 764.2 -0.9 88
2019-03-31 04:00:00 -1.3 26 Noroeste 42 Noroeste 0 764.9 -0.4 86
2019-03-31 00:00:00 -0.7 37 Noroeste 40 Noroeste 0 765.3 -0.3 83
2019-03-30 23:00:00 -0.6 35 Noroeste 46 Noroeste 0 765.7 0.6 84
2019-03-30 22:00:00 -1 42 Noroeste 44 Noroeste 0 765.6 1 90
2019-03-30 21:00:00 -1 32 Noroeste 36 Noroeste 0 765.6 1.4 92
2019-03-30 20:00:00 -0.9 25 Noroeste 35 Noroeste 0 765.1 0.9 92
2019-03-30 19:00:00 0.2 32 Noroeste 44 Norte 0 764.6 0.5 99
2019-03-30 18:00:00 0.5 40 Noroeste 50 Noroeste 0 764.2 -0.1 95
2019-03-30 17:00:00 0.9 34 Noroeste 48 Norte 0 764.2 -0.3 100
2019-03-30 16:00:00 1.4 32 Noroeste 47 Noroeste 0 764.1 -0.8 99
2019-03-30 15:00:00 3.1 31 Noroeste 44 Noroeste 0 764.3 -0.8 90
2019-03-30 14:00:00 2.2 25 Norte 37 Norte 0 764.5 -0.3 100
2019-03-30 13:00:00 2.4 19 Norte 41 Noroeste 0 764.9 0.1 100
2019-03-30 12:00:00 1.8 21 Noroeste 40 Noroeste 0 765.1 1.2 100
2019-03-30 11:00:00 1 29 Noroeste 37 Noroeste 0 764.8 1.9 99
2019-03-30 10:00:00 0.5 12 Noroeste 32 Noroeste 0 764.8 1.5 97
2019-03-30 09:00:00 -0.5 23 Noroeste 45 Noroeste 1.6 763.9 1.2 100
2019-03-30 08:00:00 -1.2 36 Noroeste 42 Noroeste 0.6 762.9 0.1 100
2019-03-30 07:00:00 -1.8 9 Noroeste 19 Noroeste 0 763.3 0.2 100
2019-03-30 06:00:00 -2 18 Noroeste 20 Noroeste 0 762.7 -0.7 100
2019-03-30 05:00:00 -2.3 9 Noroeste 14 Noroeste 0 762.8 -1 95
2019-03-30 04:00:00 -1.8 10 Noroeste 13 Noroeste 0 763.1 -1.2 91
2019-03-30 03:00:00 -1.4 8 Noroeste 11 Oeste 0 763.4 -1.1 76
2019-03-30 02:00:00 -1.5 2 Oeste 9 Norte 0 763.8 -0.8 70
2019-03-30 01:00:00 -1.7 6 Norte 17 Norte 0 764.3 -0.3 100
2019-03-30 00:00:00 -1.3 15 Noroeste 19 Sudoeste 0 764.5 0.1 86
2019-03-29 23:00:00 -0.9 17 Sudoeste 19 Sudoeste 0 764.6 0.8 72
2019-03-29 22:00:00 -0.9 11 Oeste 13 Sudoeste 0 764.6 1 90
2019-03-29 21:00:00 -0.4 6 Sudoeste 15 Sur 0 764.4 1.1 100
2019-03-29 20:00:00 0.2 7 Sur 15 Sur 0 763.8 0.2 100
2019-03-29 19:00:00 0.6 7 Sur 21 Sur 0.2 763.6 -0.1 100
2019-03-29 18:00:00 1.7 9 Noroeste 18 Norte 0 763.3 -0.9 99
2019-03-29 17:00:00 2.7 10 Sur 35 Sur 0 763.6 -1 96
2019-03-29 16:00:00 3.9 14 Sur 32 Sudoeste 0 763.7 -1.5 94
2019-03-29 15:00:00 5.5 19 Sudoeste 32 Sudoeste 0 764.2 -1.3 82
2019-03-29 14:00:00 5.1 18 Sudoeste 35 Oeste 0 764.6 -0.8 88
2019-03-29 13:00:00 3.6 21 Sudoeste 37 Oeste 0 765.2 -0.1 97
2019-03-29 12:00:00 3.9 12 Sudoeste 23 Sudoeste 0.2 765.5 0.6 100
2019-03-29 11:00:00 1.8 14 Sudoeste 27 Sudoeste 0 765.4 0.8 98
2019-03-29 10:00:00 2 12 Sur 24 Sur 0 765.3 0.9 96
2019-03-29 09:00:00 1.3 18 Sur 31 Sur 0 764.9 1 90
2019-03-29 08:00:00 0 18 Sudoeste 28 Sudoeste 0 764.6 0.7 79
2019-03-29 07:00:00 -1.3 23 Sudoeste 33 Sudoeste 0 764.4 0.3 90
2019-03-29 06:00:00 -1.2 30 Sudoeste 38 Sudoeste 0 763.9 -0.4 94
2019-03-29 05:00:00 -1 32 Sudoeste 37 Sudoeste 0 763.9 -0.8 87
2019-03-29 04:00:00 -0.9 34 Sudoeste 39 Sudoeste 0 764.1 -1.2 90
2019-03-29 03:00:00 -0.8 34 Sudoeste 42 Sudoeste 0 764.3 -1.4 96
2019-03-29 02:00:00 -0.4 25 Sudoeste 32 Sudoeste 0 764.7 -1.2 97
2019-03-29 01:00:00 -0.2 28 Sudoeste 33 Sudoeste 0 765.3 -0.7 100
2019-03-29 00:00:00 -0.1 30 Sudoeste 35 Sudoeste 0 765.7 -0.2 100
2019-03-28 23:00:00 -0.1 26 Sudoeste 30 Sudoeste 0 765.9 0.2 100
2019-03-28 22:00:00 0.5 23 Sudoeste 26 Sudoeste 0 766 0.8 100
2019-03-28 21:00:00 0.8 13 Sur 21 Sur 0 765.9 0.8 100
2019-03-28 20:00:00 1.4 12 Sur 21 Sudoeste 0 765.7 0.8 100
2019-03-28 19:00:00 1.9 13 Sur 26 Sudoeste 0 765.2 0.2 100
2019-03-28 18:00:00 2.3 14 Sur 24 Sur 0 765.1 -0.1 100
2019-03-28 17:00:00 2.2 13 Sur 20 Sudoeste 0.4 764.9 -0.7 100
2019-03-28 16:00:00 2.5 14 Sur 20 Sur 0.2 765 -0.8 100
2019-03-28 15:00:00 2.8 14 Sur 20 Sudoeste 0.2 765.2 -1 100
2019-03-28 14:00:00 2.2 11 Sur 17 Sur 0.2 765.6 -0.6 100
2019-03-28 13:00:00 2.5 9 Sudeste 21 Sur 0 765.8 -0.3 100
2019-03-28 12:00:00 2.8 12 Sudoeste 22 Sur 0 766.2 0.4 100
2019-03-28 11:00:00 3.1 11 Sur 20 Sur 0 766.2 0.7 98
2019-03-28 10:00:00 1.9 9 Sur 19 Sudoeste 0 766.1 0.9 96
2019-03-28 09:00:00 1.6 10 Sur 15 Sur 0 765.8 0.9 93
2019-03-28 08:00:00 0.8 11 Sur 14 Sudoeste 0 765.5 0.7 93
2019-03-28 07:00:00 -0.5 10 Sudoeste 11 Sudoeste 0 765.2 0.4 94
2019-03-28 06:00:00 -0.4 8 Sur 11 Sur 0 764.9 -0.1 90
2019-03-28 05:00:00 -0.2 5 Sur 7 Noroeste 0 764.8 -0.4 86
2019-03-28 04:00:00 -0.2 5 Noroeste 9 Noroeste 0 764.8 -0.7 89
2019-03-28 03:00:00 0 7 Noroeste 14 Oeste 0 765 -0.7 84
2019-03-28 02:00:00 0.3 10 Oeste 14 Noroeste 0 765.2 -0.7 80
2019-03-28 01:00:00 0.4 13 Oeste 15 Oeste 0 765.5 -0.3 80
2019-03-28 00:00:00 0.8 8 Sudoeste 10 Sudoeste 0 765.7 0.2 78
2019-03-27 23:00:00 1 6 Noroeste 15 Oeste 0 765.9 1 89
2019-03-27 22:00:00 1.2 10 Sudoeste 15 Oeste 0 765.8 1 88
2019-03-27 21:00:00 0.9 5 Sudoeste 13 Sudoeste 0 765.5 0.9 92
2019-03-27 20:00:00 1.3 11 Sudoeste 17 Sudoeste 0 764.9 0.6 90
2019-03-27 19:00:00 2.2 8 Sur 14 Sudoeste 0 764.8 0.4 96
2019-03-27 18:00:00 2.7 10 Sudoeste 15 Sudoeste 0 764.6 0.2 85
2019-03-27 17:00:00 2.3 5 Noroeste 13 Sur 0.2 764.3 -0.2 84
2019-03-27 16:00:00 1.2 6 Sudoeste 17 Sudoeste 0.8 764.4 -0.5 91
2019-03-27 15:00:00 0.9 14 Sudoeste 25 Sudoeste 4.2 764.4 -0.7 97
2019-03-27 14:00:00 3.5 9 Nordeste 16 Nordeste 0 764.5 -0.6 99
2019-03-27 13:00:00 4.8 14 Sur 23 Sur 0 764.9 0.2 92
2019-03-27 12:00:00 3.5 12 Sur 21 Sur 0 765.1 0.9 96
2019-03-27 11:00:00 3.6 10 Sudeste 24 Sudeste 0 765.1 1.5 90
2019-03-27 10:00:00 4.2 6 Nordeste 16 Este 0 764.7 1.5 89
2019-03-27 09:00:00 2.9 8 Noroeste 19 Norte 0 764.2 1.7 79
2019-03-27 08:00:00 1 14 Noroeste 24 Norte 0 763.6 1.6 86
2019-03-27 07:00:00 0 18 Noroeste 24 Noroeste 0 763.2 1.1 100
2019-03-27 06:00:00 0.2 18 Noroeste 31 Noroeste 0 762.5 0.3 100
2019-03-27 05:00:00 0.3 23 Noroeste 27 Norte 0 762 -0.4 100
2019-03-27 04:00:00 -0.1 23 Noroeste 32 Noroeste 0 762.1 -0.4 100
2019-03-27 03:00:00 0.6 24 Noroeste 36 Norte 0 762.2 -0.2 100
2019-03-27 02:00:00 0.6 28 Norte 33 Norte 0 762.4 0 100
2019-03-27 01:00:00 0.6 24 Norte 36 Noroeste 0 762.5 0.3 100
2019-03-27 00:00:00 0.5 29 Noroeste 37 Noroeste 0 762.4 0.7 100